Current Conditions
Clear
Conditions



Pressure
1018.92 (hPa) - 30.09 (inHG)
Visibility

10.0 (km) - 6.2 (miles)
Temperature
13  °C
Temperature
6  °C
Dewpoint
63  %
 Humidity
Wind Speed
29  km/h
16  kts
18  mph
8.0  m/s
Wind Direction
N
45°
E
90°
135°
S
180°
225°
W
270°
315°
 10°

Due North
Airport Data
YMEN
Melbourne Essendon Airport
Metar :YMEN 221817Z AUTO 01016KT 350V070 9999 // NCD 13/06 Q1019
Wed 23rd June 04:17 am
Raw Metar Info
Raw METAR is the most common format in the world for the transmission of observational weather data. It is highly standardized through the International Civil Aviation Organization (ICAO), which allows it to be understood throughout most of the world.
API Info
Data Provided by
https://www.checkwx.com/weather/YMEN

Aviation Weather providing METAR, TAF, AIRMET, SIGMET and OUTLOOK Weather Reports
© Info
CSS/SVG/PHP scripts were developed by weather34.com for use in the weather34 template © 2015-2021

Guide Info provided by Metar-Wikipedia